Terminal Aerodrome Forecast
Issued by NWS

Home | Current Version | Previous Version | Text Only | Print | Product List | Glossary On
Versions: 1 2 3 4 5 6 7 8 9 10 11 12 13 14 15 16 17 18 19
000
FTAK31 PANC 111514 AAB
TAFAEN
TAF AMD
PAEN 111514Z 1115/1212 04008KT P6SM -SHRA BKN060
     FM111700 16016G25KT 5SM -RA SCT015 BKN025
     FM112200 13007KT P6SM SCT060 BKN100
     FM120400 04012KT P6SM VCSH BKN040=

USA.gov is the U.S. government's official web portal to all federal, state and local government web resources and services.